sensor_id;sensor_type;location;lat;lon;timestamp;P1;durP1;ratioP1;P2;durP2;ratioP2
14686;SDS011;7431;49.440;11.084;2023-06-10T00:01:24;5.88;;;5.10;;
14686;SDS011;7431;49.440;11.084;2023-06-10T00:03:50;5.72;;;5.13;;
14686;SDS011;7431;49.440;11.084;2023-06-10T00:06:16;5.53;;;4.72;;
14686;SDS011;7431;49.440;11.084;2023-06-10T00:08:42;6.47;;;4.88;;
14686;SDS011;7431;49.440;11.084;2023-06-10T00:11:08;4.95;;;4.50;;
14686;SDS011;7431;49.440;11.084;2023-06-10T00:13:33;5.35;;;4.85;;
14686;SDS011;7431;49.440;11.084;2023-06-10T00:16:00;6.13;;;4.93;;
14686;SDS011;7431;49.440;11.084;2023-06-10T00:18:26;5.38;;;4.88;;
14686;SDS011;7431;49.440;11.084;2023-06-10T00:20:52;6.00;;;5.20;;
14686;SDS011;7431;49.440;11.084;2023-06-10T00:23:20;5.38;;;4.88;;
14686;SDS011;7431;49.440;11.084;2023-06-10T00:25:46;10.35;;;7.93;;
14686;SDS011;7431;49.440;11.084;2023-06-10T00:28:12;6.35;;;5.63;;
14686;SDS011;7431;49.440;11.084;2023-06-10T00:30:38;7.88;;;6.13;;
14686;SDS011;7431;49.440;11.084;2023-06-10T00:33:04;8.32;;;5.70;;
14686;SDS011;7431;49.440;11.084;2023-06-10T00:35:29;6.07;;;5.25;;
14686;SDS011;7431;49.440;11.084;2023-06-10T00:37:55;6.53;;;5.32;;
14686;SDS011;7431;49.440;11.084;2023-06-10T00:40:21;5.03;;;4.53;;
14686;SDS011;7431;49.440;11.084;2023-06-10T00:42:46;6.28;;;5.10;;
14686;SDS011;7431;49.440;11.084;2023-06-10T00:45:12;5.20;;;4.70;;
14686;SDS011;7431;49.440;11.084;2023-06-10T00:47:38;6.10;;;5.50;;
14686;SDS011;7431;49.440;11.084;2023-06-10T00:50:04;7.57;;;5.47;;
14686;SDS011;7431;49.440;11.084;2023-06-10T00:52:30;5.47;;;4.70;;
14686;SDS011;7431;49.440;11.084;2023-06-10T00:54:56;5.78;;;5.00;;
14686;SDS011;7431;49.440;11.084;2023-06-10T00:57:23;5.57;;;5.07;;
14686;SDS011;7431;49.440;11.084;2023-06-10T00:59:52;6.63;;;5.53;;
14686;SDS011;7431;49.440;11.084;2023-06-10T01:02:18;5.97;;;4.95;;
14686;SDS011;7431;49.440;11.084;2023-06-10T01:04:43;5.50;;;5.00;;
14686;SDS011;7431;49.440;11.084;2023-06-10T01:07:14;5.60;;;4.57;;
14686;SDS011;7431;49.440;11.084;2023-06-10T01:12:32;5.22;;;4.75;;
14686;SDS011;7431;49.440;11.084;2023-06-10T01:15:06;5.85;;;4.68;;
14686;SDS011;7431;49.440;11.084;2023-06-10T01:17:33;5.40;;;4.72;;
14686;SDS011;7431;49.440;11.084;2023-06-10T01:20:02;6.35;;;5.32;;
14686;SDS011;7431;49.440;11.084;2023-06-10T01:22:28;6.13;;;5.00;;
14686;SDS011;7431;49.440;11.084;2023-06-10T01:24:57;5.18;;;4.68;;
14686;SDS011;7431;49.440;11.084;2023-06-10T01:27:23;5.10;;;4.60;;
14686;SDS011;7431;49.440;11.084;2023-06-10T01:29:58;5.97;;;4.70;;
14686;SDS011;7431;49.440;11.084;2023-06-10T01:32:36;7.28;;;5.40;;
14686;SDS011;7431;49.440;11.084;2023-06-10T01:35:05;5.68;;;5.18;;
14686;SDS011;7431;49.440;11.084;2023-06-10T01:37:32;5.03;;;4.60;;
14686;SDS011;7431;49.440;11.084;2023-06-10T01:39:59;6.20;;;5.20;;
14686;SDS011;7431;49.440;11.084;2023-06-10T01:42:28;5.28;;;4.78;;
14686;SDS011;7431;49.440;11.084;2023-06-10T01:44:54;5.63;;;5.03;;
14686;SDS011;7431;49.440;11.084;2023-06-10T01:47:20;6.53;;;4.95;;
14686;SDS011;7431;49.440;11.084;2023-06-10T01:49:46;5.38;;;4.90;;
14686;SDS011;7431;49.440;11.084;2023-06-10T01:52:11;5.35;;;4.78;;
14686;SDS011;7431;49.440;11.084;2023-06-10T01:54:37;4.95;;;4.45;;
14686;SDS011;7431;49.440;11.084;2023-06-10T01:57:03;5.80;;;5.20;;
14686;SDS011;7431;49.440;11.084;2023-06-10T01:59:28;5.60;;;4.63;;
14686;SDS011;7431;49.440;11.084;2023-06-10T02:01:54;5.40;;;4.90;;
14686;SDS011;7431;49.440;11.084;2023-06-10T02:04:20;8.95;;;4.97;;
14686;SDS011;7431;49.440;11.084;2023-06-10T02:06:45;6.00;;;5.40;;
14686;SDS011;7431;49.440;11.084;2023-06-10T02:09:11;5.85;;;5.25;;
14686;SDS011;7431;49.440;11.084;2023-06-10T02:11:36;5.75;;;5.10;;
14686;SDS011;7431;49.440;11.084;2023-06-10T02:14:02;6.88;;;4.82;;
14686;SDS011;7431;49.440;11.084;2023-06-10T02:16:30;6.10;;;5.32;;
14686;SDS011;7431;49.440;11.084;2023-06-10T02:18:56;5.72;;;5.07;;
14686;SDS011;7431;49.440;11.084;2023-06-10T02:21:22;5.43;;;4.90;;
14686;SDS011;7431;49.440;11.084;2023-06-10T02:23:48;5.07;;;4.57;;
14686;SDS011;7431;49.440;11.084;2023-06-10T02:26:13;6.03;;;5.05;;
14686;SDS011;7431;49.440;11.084;2023-06-10T02:28:42;5.68;;;5.05;;
14686;SDS011;7431;49.440;11.084;2023-06-10T02:31:08;7.05;;;5.55;;
14686;SDS011;7431;49.440;11.084;2023-06-10T02:33:33;5.63;;;4.95;;
14686;SDS011;7431;49.440;11.084;2023-06-10T02:35:59;6.70;;;5.55;;
14686;SDS011;7431;49.440;11.084;2023-06-10T02:38:25;5.85;;;4.93;;
14686;SDS011;7431;49.440;11.084;2023-06-10T02:40:50;6.43;;;5.60;;
14686;SDS011;7431;49.440;11.084;2023-06-10T02:43:16;5.78;;;5.25;;
14686;SDS011;7431;49.440;11.084;2023-06-10T02:45:41;5.30;;;4.80;;
14686;SDS011;7431;49.440;11.084;2023-06-10T02:48:07;5.40;;;4.90;;
14686;SDS011;7431;49.440;11.084;2023-06-10T02:50:32;6.55;;;4.93;;
14686;SDS011;7431;49.440;11.084;2023-06-10T02:52:58;5.30;;;4.80;;
14686;SDS011;7431;49.440;11.084;2023-06-10T02:55:23;5.77;;;5.10;;
14686;SDS011;7431;49.440;11.084;2023-06-10T02:57:51;5.60;;;5.10;;
14686;SDS011;7431;49.440;11.084;2023-06-10T03:00:17;6.50;;;5.32;;
14686;SDS011;7431;49.440;11.084;2023-06-10T03:02:45;5.50;;;4.87;;
14686;SDS011;7431;49.440;11.084;2023-06-10T03:05:10;5.75;;;5.07;;
14686;SDS011;7431;49.440;11.084;2023-06-10T03:07:38;6.03;;;5.20;;
14686;SDS011;7431;49.440;11.084;2023-06-10T03:10:04;5.80;;;5.20;;
14686;SDS011;7431;49.440;11.084;2023-06-10T03:12:31;5.80;;;4.93;;
14686;SDS011;7431;49.440;11.084;2023-06-10T03:14:56;5.20;;;4.70;;
14686;SDS011;7431;49.440;11.084;2023-06-10T03:17:22;7.50;;;6.00;;
14686;SDS011;7431;49.440;11.084;2023-06-10T03:19:48;5.97;;;5.37;;
14686;SDS011;7431;49.440;11.084;2023-06-10T03:22:14;8.05;;;5.20;;
14686;SDS011;7431;49.440;11.084;2023-06-10T03:24:41;6.53;;;5.68;;
14686;SDS011;7431;49.440;11.084;2023-06-10T03:27:08;7.03;;;5.18;;
14686;SDS011;7431;49.440;11.084;2023-06-10T03:29:36;6.03;;;5.18;;
14686;SDS011;7431;49.440;11.084;2023-06-10T03:32:02;6.20;;;5.60;;
14686;SDS011;7431;49.440;11.084;2023-06-10T03:34:28;6.20;;;5.60;;
14686;SDS011;7431;49.440;11.084;2023-06-10T03:36:54;7.15;;;5.93;;
14686;SDS011;7431;49.440;11.084;2023-06-10T03:39:20;5.97;;;5.38;;
14686;SDS011;7431;49.440;11.084;2023-06-10T03:41:46;8.07;;;5.50;;
14686;SDS011;7431;49.440;11.084;2023-06-10T03:44:12;5.97;;;5.38;;
14686;SDS011;7431;49.440;11.084;2023-06-10T03:46:37;6.72;;;5.13;;
14686;SDS011;7431;49.440;11.084;2023-06-10T03:49:03;6.10;;;4.97;;
14686;SDS011;7431;49.440;11.084;2023-06-10T03:51:29;7.45;;;5.57;;
14686;SDS011;7431;49.440;11.084;2023-06-10T03:53:55;7.20;;;5.40;;
14686;SDS011;7431;49.440;11.084;2023-06-10T03:56:20;6.82;;;5.35;;
14686;SDS011;7431;49.440;11.084;2023-06-10T03:58:46;6.03;;;5.35;;
14686;SDS011;7431;49.440;11.084;2023-06-10T04:01:11;6.30;;;5.57;;
14686;SDS011;7431;49.440;11.084;2023-06-10T04:03:38;5.80;;;5.28;;
14686;SDS011;7431;49.440;11.084;2023-06-10T04:06:06;5.90;;;5.20;;
14686;SDS011;7431;49.440;11.084;2023-06-10T04:08:32;6.38;;;5.07;;
14686;SDS011;7431;49.440;11.084;2023-06-10T04:10:58;6.90;;;4.82;;
14686;SDS011;7431;49.440;11.084;2023-06-10T04:13:24;7.13;;;5.38;;
14686;SDS011;7431;49.440;11.084;2023-06-10T04:15:49;5.68;;;5.18;;
14686;SDS011;7431;49.440;11.084;2023-06-10T04:18:15;6.78;;;5.32;;
14686;SDS011;7431;49.440;11.084;2023-06-10T04:20:41;6.28;;;5.00;;
14686;SDS011;7431;49.440;11.084;2023-06-10T04:23:07;7.75;;;5.55;;
14686;SDS011;7431;49.440;11.084;2023-06-10T04:25:32;5.63;;;5.07;;
14686;SDS011;7431;49.440;11.084;2023-06-10T04:27:58;5.80;;;5.07;;
14686;SDS011;7431;49.440;11.084;2023-06-10T04:30:24;6.28;;;5.68;;
14686;SDS011;7431;49.440;11.084;2023-06-10T04:32:50;8.20;;;6.07;;
14686;SDS011;7431;49.440;11.084;2023-06-10T04:35:15;6.78;;;6.07;;
14686;SDS011;7431;49.440;11.084;2023-06-10T04:37:41;7.93;;;5.88;;
14686;SDS011;7431;49.440;11.084;2023-06-10T04:40:07;8.05;;;6.25;;
14686;SDS011;7431;49.440;11.084;2023-06-10T04:42:33;6.93;;;5.82;;
14686;SDS011;7431;49.440;11.084;2023-06-10T04:44:59;6.75;;;5.72;;
14686;SDS011;7431;49.440;11.084;2023-06-10T04:47:25;6.35;;;5.57;;
14686;SDS011;7431;49.440;11.084;2023-06-10T04:49:51;7.05;;;5.82;;
14686;SDS011;7431;49.440;11.084;2023-06-10T04:52:17;6.88;;;6.18;;
14686;SDS011;7431;49.440;11.084;2023-06-10T04:54:43;7.38;;;6.15;;
14686;SDS011;7431;49.440;11.084;2023-06-10T04:57:09;7.03;;;6.32;;
14686;SDS011;7431;49.440;11.084;2023-06-10T04:59:36;7.63;;;6.82;;
14686;SDS011;7431;49.440;11.084;2023-06-10T05:02:03;7.85;;;6.45;;
14686;SDS011;7431;49.440;11.084;2023-06-10T05:04:29;6.47;;;5.88;;
14686;SDS011;7431;49.440;11.084;2023-06-10T05:06:55;5.85;;;5.25;;
14686;SDS011;7431;49.440;11.084;2023-06-10T05:09:21;6.75;;;5.80;;
14686;SDS011;7431;49.440;11.084;2023-06-10T05:11:46;9.43;;;5.95;;
14686;SDS011;7431;49.440;11.084;2023-06-10T05:14:12;6.32;;;5.05;;
14686;SDS011;7431;49.440;11.084;2023-06-10T05:16:38;6.22;;;5.63;;
14686;SDS011;7431;49.440;11.084;2023-06-10T05:19:04;7.63;;;5.10;;
14686;SDS011;7431;49.440;11.084;2023-06-10T05:21:30;4.82;;;4.40;;
14686;SDS011;7431;49.440;11.084;2023-06-10T05:23:55;5.18;;;4.35;;
14686;SDS011;7431;49.440;11.084;2023-06-10T05:26:21;4.80;;;4.32;;
14686;SDS011;7431;49.440;11.084;2023-06-10T05:28:47;6.75;;;5.13;;
14686;SDS011;7431;49.440;11.084;2023-06-10T05:31:13;5.45;;;4.72;;
14686;SDS011;7431;49.440;11.084;2023-06-10T05:33:38;8.45;;;4.55;;
14686;SDS011;7431;49.440;11.084;2023-06-10T05:36:04;4.75;;;4.35;;
14686;SDS011;7431;49.440;11.084;2023-06-10T05:38:30;4.60;;;4.20;;
14686;SDS011;7431;49.440;11.084;2023-06-10T05:40:56;4.82;;;4.32;;
14686;SDS011;7431;49.440;11.084;2023-06-10T05:43:22;5.35;;;4.10;;
14686;SDS011;7431;49.440;11.084;2023-06-10T05:45:47;5.57;;;5.13;;
14686;SDS011;7431;49.440;11.084;2023-06-10T05:48:13;6.05;;;5.55;;
14686;SDS011;7431;49.440;11.084;2023-06-10T05:50:39;6.63;;;6.03;;
14686;SDS011;7431;49.440;11.084;2023-06-10T05:53:07;5.50;;;5.00;;
14686;SDS011;7431;49.440;11.084;2023-06-10T05:55:39;5.15;;;4.53;;
14686;SDS011;7431;49.440;11.084;2023-06-10T05:58:09;6.53;;;4.93;;
14686;SDS011;7431;49.440;11.084;2023-06-10T06:00:34;5.03;;;4.10;;
14686;SDS011;7431;49.440;11.084;2023-06-10T06:03:00;5.35;;;4.40;;
14686;SDS011;7431;49.440;11.084;2023-06-10T06:05:26;4.50;;;4.13;;
14686;SDS011;7431;49.440;11.084;2023-06-10T06:07:51;4.72;;;4.32;;
14686;SDS011;7431;49.440;11.084;2023-06-10T06:10:17;4.18;;;3.83;;
14686;SDS011;7431;49.440;11.084;2023-06-10T06:12:43;4.80;;;4.40;;
14686;SDS011;7431;49.440;11.084;2023-06-10T06:15:10;4.45;;;4.05;;
14686;SDS011;7431;49.440;11.084;2023-06-10T06:17:36;4.65;;;4.25;;
14686;SDS011;7431;49.440;11.084;2023-06-10T06:20:02;4.32;;;3.90;;
14686;SDS011;7431;49.440;11.084;2023-06-10T06:22:28;4.22;;;3.92;;
14686;SDS011;7431;49.440;11.084;2023-06-10T06:24:54;4.28;;;3.92;;
14686;SDS011;7431;49.440;11.084;2023-06-10T06:27:20;5.72;;;3.97;;
14686;SDS011;7431;49.440;11.084;2023-06-10T06:29:46;5.32;;;3.83;;
14686;SDS011;7431;49.440;11.084;2023-06-10T06:32:11;4.10;;;3.67;;
14686;SDS011;7431;49.440;11.084;2023-06-10T06:34:37;4.43;;;4.03;;
14686;SDS011;7431;49.440;11.084;2023-06-10T06:37:03;4.55;;;3.75;;
14686;SDS011;7431;49.440;11.084;2023-06-10T06:39:28;4.32;;;3.80;;
14686;SDS011;7431;49.440;11.084;2023-06-10T06:41:54;3.90;;;3.50;;
14686;SDS011;7431;49.440;11.084;2023-06-10T06:44:19;3.45;;;3.15;;
14686;SDS011;7431;49.440;11.084;2023-06-10T06:46:45;4.18;;;3.88;;
14686;SDS011;7431;49.440;11.084;2023-06-10T06:49:11;4.15;;;3.75;;
14686;SDS011;7431;49.440;11.084;2023-06-10T06:51:36;3.83;;;3.53;;
14686;SDS011;7431;49.440;11.084;2023-06-10T06:54:02;5.55;;;3.75;;
14686;SDS011;7431;49.440;11.084;2023-06-10T06:56:28;4.15;;;3.75;;
14686;SDS011;7431;49.440;11.084;2023-06-10T06:58:53;4.10;;;3.80;;
14686;SDS011;7431;49.440;11.084;2023-06-10T07:01:19;4.13;;;3.75;;
14686;SDS011;7431;49.440;11.084;2023-06-10T07:03:45;3.55;;;3.25;;
14686;SDS011;7431;49.440;11.084;2023-06-10T07:06:12;4.50;;;4.10;;
14686;SDS011;7431;49.440;11.084;2023-06-10T07:08:38;5.13;;;4.47;;
14686;SDS011;7431;49.440;11.084;2023-06-10T07:11:03;4.15;;;3.78;;
14686;SDS011;7431;49.440;11.084;2023-06-10T07:13:29;4.22;;;3.83;;
14686;SDS011;7431;49.440;11.084;2023-06-10T07:15:54;4.10;;;3.70;;
14686;SDS011;7431;49.440;11.084;2023-06-10T07:18:20;5.10;;;3.83;;
14686;SDS011;7431;49.440;11.084;2023-06-10T07:20:45;4.43;;;3.63;;
14686;SDS011;7431;49.440;11.084;2023-06-10T07:23:11;4.25;;;3.85;;
14686;SDS011;7431;49.440;11.084;2023-06-10T07:25:37;4.30;;;3.75;;
14686;SDS011;7431;49.440;11.084;2023-06-10T07:28:02;4.32;;;3.65;;
14686;SDS011;7431;49.440;11.084;2023-06-10T07:30:28;6.05;;;4.03;;
14686;SDS011;7431;49.440;11.084;2023-06-10T07:32:53;4.10;;;3.72;;
14686;SDS011;7431;49.440;11.084;2023-06-10T07:35:20;3.85;;;3.40;;
14686;SDS011;7431;49.440;11.084;2023-06-10T07:37:46;5.97;;;3.58;;
14686;SDS011;7431;49.440;11.084;2023-06-10T07:40:12;4.45;;;4.05;;
14686;SDS011;7431;49.440;11.084;2023-06-10T07:42:37;4.38;;;3.97;;
14686;SDS011;7431;49.440;11.084;2023-06-10T07:45:03;4.07;;;3.72;;
14686;SDS011;7431;49.440;11.084;2023-06-10T07:47:30;3.45;;;3.22;;
14686;SDS011;7431;49.440;11.084;2023-06-10T07:49:56;4.30;;;3.90;;
14686;SDS011;7431;49.440;11.084;2023-06-10T07:52:21;4.00;;;3.70;;
14686;SDS011;7431;49.440;11.084;2023-06-10T07:54:47;4.00;;;3.65;;
14686;SDS011;7431;49.440;11.084;2023-06-10T07:57:13;4.03;;;3.72;;
14686;SDS011;7431;49.440;11.084;2023-06-10T07:59:38;4.32;;;3.92;;
14686;SDS011;7431;49.440;11.084;2023-06-10T08:02:04;3.45;;;3.15;;
14686;SDS011;7431;49.440;11.084;2023-06-10T08:04:30;3.80;;;3.45;;
14686;SDS011;7431;49.440;11.084;2023-06-10T08:07:00;4.15;;;3.75;;
14686;SDS011;7431;49.440;11.084;2023-06-10T08:09:25;4.47;;;3.47;;
14686;SDS011;7431;49.440;11.084;2023-06-10T08:11:51;4.55;;;3.40;;
14686;SDS011;7431;49.440;11.084;2023-06-10T08:14:16;3.63;;;3.33;;
14686;SDS011;7431;49.440;11.084;2023-06-10T08:16:43;3.97;;;3.60;;
14686;SDS011;7431;49.440;11.084;2023-06-10T08:19:08;3.72;;;3.42;;
14686;SDS011;7431;49.440;11.084;2023-06-10T08:21:34;7.10;;;3.10;;
14686;SDS011;7431;49.440;11.084;2023-06-10T08:24:02;3.30;;;3.03;;
14686;SDS011;7431;49.440;11.084;2023-06-10T08:26:28;3.53;;;3.22;;
14686;SDS011;7431;49.440;11.084;2023-06-10T08:28:53;3.85;;;3.55;;
14686;SDS011;7431;49.440;11.084;2023-06-10T08:31:20;3.72;;;3.42;;
14686;SDS011;7431;49.440;11.084;2023-06-10T08:33:46;3.50;;;3.20;;
14686;SDS011;7431;49.440;11.084;2023-06-10T08:36:11;3.50;;;3.20;;
14686;SDS011;7431;49.440;11.084;2023-06-10T08:38:37;3.03;;;2.83;;
14686;SDS011;7431;49.440;11.084;2023-06-10T08:41:03;3.30;;;3.00;;
14686;SDS011;7431;49.440;11.084;2023-06-10T08:43:34;3.25;;;2.95;;
14686;SDS011;7431;49.440;11.084;2023-06-10T08:46:08;2.47;;;2.28;;
14686;SDS011;7431;49.440;11.084;2023-06-10T08:48:35;2.80;;;2.60;;
14686;SDS011;7431;49.440;11.084;2023-06-10T08:51:06;3.63;;;2.67;;
14686;SDS011;7431;49.440;11.084;2023-06-10T08:53:34;2.78;;;2.58;;
14686;SDS011;7431;49.440;11.084;2023-06-10T08:56:02;2.90;;;2.60;;
14686;SDS011;7431;49.440;11.084;2023-06-10T08:58:30;3.45;;;2.60;;
14686;SDS011;7431;49.440;11.084;2023-06-10T09:00:58;2.90;;;2.70;;
14686;SDS011;7431;49.440;11.084;2023-06-10T09:03:24;4.82;;;4.35;;
14686;SDS011;7431;49.440;11.084;2023-06-10T09:05:50;3.25;;;3.03;;
14686;SDS011;7431;49.440;11.084;2023-06-10T09:08:16;3.15;;;2.85;;
14686;SDS011;7431;49.440;11.084;2023-06-10T09:10:42;3.30;;;2.97;;
14686;SDS011;7431;49.440;11.084;2023-06-10T09:13:08;3.50;;;3.20;;
14686;SDS011;7431;49.440;11.084;2023-06-10T09:15:33;3.03;;;2.70;;
14686;SDS011;7431;49.440;11.084;2023-06-10T09:17:59;3.63;;;3.28;;
14686;SDS011;7431;49.440;11.084;2023-06-10T09:20:25;3.80;;;3.50;;
14686;SDS011;7431;49.440;11.084;2023-06-10T09:22:51;3.53;;;3.22;;
14686;SDS011;7431;49.440;11.084;2023-06-10T09:25:16;3.55;;;3.10;;
14686;SDS011;7431;49.440;11.084;2023-06-10T09:27:49;3.03;;;2.83;;
14686;SDS011;7431;49.440;11.084;2023-06-10T09:30:25;4.25;;;3.25;;
14686;SDS011;7431;49.440;11.084;2023-06-10T09:32:53;3.75;;;3.45;;
14686;SDS011;7431;49.440;11.084;2023-06-10T09:35:22;3.83;;;3.53;;
14686;SDS011;7431;49.440;11.084;2023-06-10T09:37:52;4.05;;;3.60;;
14686;SDS011;7431;49.440;11.084;2023-06-10T09:40:18;3.78;;;3.47;;
14686;SDS011;7431;49.440;11.084;2023-06-10T09:42:44;3.85;;;3.55;;
14686;SDS011;7431;49.440;11.084;2023-06-10T09:45:10;3.67;;;3.38;;
14686;SDS011;7431;49.440;11.084;2023-06-10T09:47:36;4.07;;;3.78;;
14686;SDS011;7431;49.440;11.084;2023-06-10T09:50:01;6.13;;;4.00;;
14686;SDS011;7431;49.440;11.084;2023-06-10T09:52:28;3.88;;;3.58;;
14686;SDS011;7431;49.440;11.084;2023-06-10T09:54:58;3.92;;;3.63;;
14686;SDS011;7431;49.440;11.084;2023-06-10T09:57:26;3.92;;;3.63;;
14686;SDS011;7431;49.440;11.084;2023-06-10T09:59:57;3.25;;;2.95;;
14686;SDS011;7431;49.440;11.084;2023-06-10T10:02:23;3.70;;;3.33;;
14686;SDS011;7431;49.440;11.084;2023-06-10T10:04:48;3.75;;;3.42;;
14686;SDS011;7431;49.440;11.084;2023-06-10T10:07:14;4.25;;;3.63;;
14686;SDS011;7431;49.440;11.084;2023-06-10T10:09:40;3.88;;;3.53;;
14686;SDS011;7431;49.440;11.084;2023-06-10T10:12:09;5.05;;;3.75;;
14686;SDS011;7431;49.440;11.084;2023-06-10T10:14:37;4.03;;;3.63;;
14686;SDS011;7431;49.440;11.084;2023-06-10T10:17:07;3.65;;;3.33;;
14686;SDS011;7431;49.440;11.084;2023-06-10T10:19:36;4.05;;;3.65;;
14686;SDS011;7431;49.440;11.084;2023-06-10T10:22:19;3.75;;;3.45;;
14686;SDS011;7431;49.440;11.084;2023-06-10T10:24:50;3.92;;;3.53;;
14686;SDS011;7431;49.440;11.084;2023-06-10T10:27:21;4.35;;;3.95;;
14686;SDS011;7431;49.440;11.084;2023-06-10T10:29:53;3.78;;;3.47;;
14686;SDS011;7431;49.440;11.084;2023-06-10T10:32:26;3.33;;;3.03;;
14686;SDS011;7431;49.440;11.084;2023-06-10T10:35:18;3.92;;;3.50;;
14686;SDS011;7431;49.440;11.084;2023-06-10T10:37:48;3.90;;;3.55;;
14686;SDS011;7431;49.440;11.084;2023-06-10T10:40:14;6.35;;;4.28;;
14686;SDS011;7431;49.440;11.084;2023-06-10T10:42:41;4.63;;;3.42;;
14686;SDS011;7431;49.440;11.084;2023-06-10T10:45:07;4.05;;;3.72;;
14686;SDS011;7431;49.440;11.084;2023-06-10T10:47:33;3.55;;;3.25;;
14686;SDS011;7431;49.440;11.084;2023-06-10T10:50:01;3.03;;;2.40;;
14686;SDS011;7431;49.440;11.084;2023-06-10T10:52:27;3.13;;;2.83;;
14686;SDS011;7431;49.440;11.084;2023-06-10T10:55:17;3.42;;;3.13;;
14686;SDS011;7431;49.440;11.084;2023-06-10T10:57:42;5.57;;;3.72;;
14686;SDS011;7431;49.440;11.084;2023-06-10T11:00:08;4.45;;;3.78;;
14686;SDS011;7431;49.440;11.084;2023-06-10T11:02:41;3.90;;;3.60;;
14686;SDS011;7431;49.440;11.084;2023-06-10T11:05:12;4.20;;;3.80;;
14686;SDS011;7431;49.440;11.084;2023-06-10T11:07:39;4.65;;;3.88;;
14686;SDS011;7431;49.440;11.084;2023-06-10T11:10:09;3.95;;;3.53;;
14686;SDS011;7431;49.440;11.084;2023-06-10T11:15:18;4.63;;;4.10;;
14686;SDS011;7431;49.440;11.084;2023-06-10T11:21:03;5.57;;;3.67;;
14686;SDS011;7431;49.440;11.084;2023-06-10T11:23:34;4.28;;;3.92;;
14686;SDS011;7431;49.440;11.084;2023-06-10T11:31:26;3.40;;;3.10;;
14686;SDS011;7431;49.440;11.084;2023-06-10T11:33:54;3.30;;;3.00;;
14686;SDS011;7431;49.440;11.084;2023-06-10T11:36:21;4.28;;;2.97;;
14686;SDS011;7431;49.440;11.084;2023-06-10T11:38:47;3.15;;;2.85;;
14686;SDS011;7431;49.440;11.084;2023-06-10T11:41:14;3.30;;;3.00;;
14686;SDS011;7431;49.440;11.084;2023-06-10T11:43:42;2.85;;;2.65;;
14686;SDS011;7431;49.440;11.084;2023-06-10T11:46:09;3.30;;;3.00;;
14686;SDS011;7431;49.440;11.084;2023-06-10T11:48:39;3.17;;;2.88;;
14686;SDS011;7431;49.440;11.084;2023-06-10T11:51:13;3.00;;;2.80;;
14686;SDS011;7431;49.440;11.084;2023-06-10T11:53:39;3.53;;;3.22;;
14686;SDS011;7431;49.440;11.084;2023-06-10T11:56:04;3.17;;;2.88;;
14686;SDS011;7431;49.440;11.084;2023-06-10T11:58:30;3.35;;;3.05;;
14686;SDS011;7431;49.440;11.084;2023-06-10T12:00:56;3.88;;;3.58;;
14686;SDS011;7431;49.440;11.084;2023-06-10T12:03:23;3.58;;;3.22;;
14686;SDS011;7431;49.440;11.084;2023-06-10T12:06:02;3.55;;;3.25;;
14686;SDS011;7431;49.440;11.084;2023-06-10T12:08:31;3.50;;;3.20;;
14686;SDS011;7431;49.440;11.084;2023-06-10T12:10:57;3.90;;;3.45;;
14686;SDS011;7431;49.440;11.084;2023-06-10T12:13:26;3.20;;;2.90;;
14686;SDS011;7431;49.440;11.084;2023-06-10T12:15:52;2.85;;;2.65;;
14686;SDS011;7431;49.440;11.084;2023-06-10T12:20:48;3.45;;;3.15;;
14686;SDS011;7431;49.440;11.084;2023-06-10T12:23:15;3.42;;;3.13;;
14686;SDS011;7431;49.440;11.084;2023-06-10T12:25:51;3.15;;;2.95;;
14686;SDS011;7431;49.440;11.084;2023-06-10T12:28:25;3.60;;;3.22;;
14686;SDS011;7431;49.440;11.084;2023-06-10T12:30:51;3.22;;;2.92;;
14686;SDS011;7431;49.440;11.084;2023-06-10T12:33:30;3.00;;;2.80;;
14686;SDS011;7431;49.440;11.084;2023-06-10T12:35:56;3.47;;;3.03;;
14686;SDS011;7431;49.440;11.084;2023-06-10T12:38:22;3.53;;;3.17;;
14686;SDS011;7431;49.440;11.084;2023-06-10T12:41:01;3.47;;;3.17;;
14686;SDS011;7431;49.440;11.084;2023-06-10T12:43:28;3.10;;;2.90;;
14686;SDS011;7431;49.440;11.084;2023-06-10T12:45:56;3.10;;;2.80;;
14686;SDS011;7431;49.440;11.084;2023-06-10T12:48:36;2.92;;;2.70;;
14686;SDS011;7431;49.440;11.084;2023-06-10T12:51:16;3.20;;;2.90;;
14686;SDS011;7431;49.440;11.084;2023-06-10T12:53:42;3.28;;;2.88;;
14686;SDS011;7431;49.440;11.084;2023-06-10T12:56:08;4.90;;;3.80;;
14686;SDS011;7431;49.440;11.084;2023-06-10T12:58:34;3.70;;;3.05;;
14686;SDS011;7431;49.440;11.084;2023-06-10T13:00:59;3.28;;;2.80;;
14686;SDS011;7431;49.440;11.084;2023-06-10T13:03:25;3.17;;;2.97;;
14686;SDS011;7431;49.440;11.084;2023-06-10T13:05:51;3.40;;;3.10;;
14686;SDS011;7431;49.440;11.084;2023-06-10T13:08:17;3.60;;;3.30;;
14686;SDS011;7431;49.440;11.084;2023-06-10T13:10:42;2.92;;;2.72;;
14686;SDS011;7431;49.440;11.084;2023-06-10T13:13:08;3.95;;;3.03;;
14686;SDS011;7431;49.440;11.084;2023-06-10T13:15:34;2.90;;;2.70;;
14686;SDS011;7431;49.440;11.084;2023-06-10T13:18:01;3.85;;;2.95;;
14686;SDS011;7431;49.440;11.084;2023-06-10T13:20:28;3.28;;;2.95;;
14686;SDS011;7431;49.440;11.084;2023-06-10T13:22:54;2.88;;;2.60;;
14686;SDS011;7431;49.440;11.084;2023-06-10T13:25:20;3.03;;;2.83;;
14686;SDS011;7431;49.440;11.084;2023-06-10T13:27:45;3.30;;;2.85;;
14686;SDS011;7431;49.440;11.084;2023-06-10T13:30:11;3.28;;;2.97;;
14686;SDS011;7431;49.440;11.084;2023-06-10T13:32:37;2.92;;;2.67;;
14686;SDS011;7431;49.440;11.084;2023-06-10T13:35:03;2.90;;;2.70;;
14686;SDS011;7431;49.440;11.084;2023-06-10T13:37:29;2.72;;;2.53;;
14686;SDS011;7431;49.440;11.084;2023-06-10T13:39:55;3.30;;;2.97;;
14686;SDS011;7431;49.440;11.084;2023-06-10T13:42:21;2.50;;;2.30;;
14686;SDS011;7431;49.440;11.084;2023-06-10T13:44:54;2.78;;;2.58;;
14686;SDS011;7431;49.440;11.084;2023-06-10T13:47:19;2.92;;;2.28;;
14686;SDS011;7431;49.440;11.084;2023-06-10T13:49:45;2.40;;;2.20;;
14686;SDS011;7431;49.440;11.084;2023-06-10T13:52:11;5.00;;;2.20;;
14686;SDS011;7431;49.440;11.084;2023-06-10T13:54:36;3.05;;;2.20;;
14686;SDS011;7431;49.440;11.084;2023-06-10T13:57:02;2.58;;;2.38;;
14686;SDS011;7431;49.440;11.084;2023-06-10T13:59:28;2.50;;;2.30;;
14686;SDS011;7431;49.440;11.084;2023-06-10T14:01:54;2.10;;;2.00;;
14686;SDS011;7431;49.440;11.084;2023-06-10T14:04:20;2.50;;;2.30;;
14686;SDS011;7431;49.440;11.084;2023-06-10T14:06:46;2.40;;;2.20;;
14686;SDS011;7431;49.440;11.084;2023-06-10T14:09:13;2.50;;;2.25;;
14686;SDS011;7431;49.440;11.084;2023-06-10T14:11:38;2.40;;;2.20;;
14686;SDS011;7431;49.440;11.084;2023-06-10T14:14:04;2.40;;;2.20;;
14686;SDS011;7431;49.440;11.084;2023-06-10T14:16:30;2.92;;;2.70;;
14686;SDS011;7431;49.440;11.084;2023-06-10T14:18:56;5.88;;;5.28;;
14686;SDS011;7431;49.440;11.084;2023-06-10T14:21:21;3.65;;;3.05;;
14686;SDS011;7431;49.440;11.084;2023-06-10T14:23:47;3.85;;;3.55;;
14686;SDS011;7431;49.440;11.084;2023-06-10T14:26:13;2.65;;;2.45;;
14686;SDS011;7431;49.440;11.084;2023-06-10T14:28:39;3.40;;;2.85;;
14686;SDS011;7431;49.440;11.084;2023-06-10T14:31:05;2.80;;;2.60;;
14686;SDS011;7431;49.440;11.084;2023-06-10T14:33:32;2.55;;;2.35;;
14686;SDS011;7431;49.440;11.084;2023-06-10T14:35:58;2.78;;;2.58;;
14686;SDS011;7431;49.440;11.084;2023-06-10T14:38:23;3.15;;;2.60;;
14686;SDS011;7431;49.440;11.084;2023-06-10T14:40:49;2.72;;;2.53;;
14686;SDS011;7431;49.440;11.084;2023-06-10T14:43:15;2.88;;;2.63;;
14686;SDS011;7431;49.440;11.084;2023-06-10T14:45:40;2.15;;;2.05;;
14686;SDS011;7431;49.440;11.084;2023-06-10T14:48:07;2.63;;;2.15;;
14686;SDS011;7431;49.440;11.084;2023-06-10T14:50:36;2.80;;;2.42;;
14686;SDS011;7431;49.440;11.084;2023-06-10T14:53:02;3.60;;;2.78;;
14686;SDS011;7431;49.440;11.084;2023-06-10T14:55:27;2.45;;;2.25;;
14686;SDS011;7431;49.440;11.084;2023-06-10T14:57:53;2.45;;;2.25;;
14686;SDS011;7431;49.440;11.084;2023-06-10T15:00:19;2.80;;;2.55;;
14686;SDS011;7431;49.440;11.084;2023-06-10T15:02:47;2.92;;;2.28;;